Time;durP1;ratioP1;P1;durP2;ratioP2;P2;SDS_P1;SDS_P2;PMS_P1;PMS_P2;Temp;Humidity;BMP_temperature;BMP_pressure;BME280_temperature;BME280_humidity;BME280_pressure;Samples;Min_cycle;Max_cycle;Signal;HPM_P1;HPM_P2
2023/06/08 00:01:37;;;;;;;;;15.25;15.25;;;;;21.12;58.77;99009.31;5090470;27;45611;-63
2023/06/08 00:04:05;;;;;;;;;15.75;15.75;;;;;21.01;59.29;99010.25;5091319;27;45421;-63
2023/06/08 00:06:33;;;;;;;;;16.00;16.00;;;;;20.96;58.96;99008.91;5091335;27;45426;-63
2023/06/08 00:09:01;;;;;;;;;17.50;16.50;;;;;20.90;59.26;99002.28;5072134;27;45508;-63
2023/06/08 00:11:27;;;;;;;;;18.75;16.00;;;;;20.87;59.51;99000.69;5087503;27;45388;-64
2023/06/08 00:13:53;;;;;;;;;19.25;18.25;;;;;20.84;59.33;99002.78;5076530;27;45484;-63
2023/06/08 00:16:20;;;;;;;;;15.25;15.25;;;;;20.81;59.81;98995.00;5096314;27;45615;-64
2023/06/08 00:18:46;;;;;;;;;18.00;18.00;;;;;20.79;60.33;99004.97;5093971;27;45373;-63
2023/06/08 00:21:12;;;;;;;;;16.25;16.25;;;;;20.75;59.94;99008.91;5094952;27;45568;-63
2023/06/08 00:23:39;;;;;;;;;15.75;15.00;;;;;20.73;60.42;99009.03;5092763;27;45570;-64
2023/06/08 00:26:05;;;;;;;;;23.00;20.50;;;;;20.73;59.89;99006.38;5077745;27;45413;-63
2023/06/08 00:28:31;;;;;;;;;21.75;19.50;;;;;20.72;60.37;99002.00;5093615;27;45409;-63
2023/06/08 00:30:56;;;;;;;;;23.00;19.50;;;;;20.75;60.20;99008.91;5096234;27;45958;-63
2023/06/08 00:33:22;;;;;;;;;21.00;20.50;;;;;20.75;60.48;98995.53;5089347;27;45451;-63
2023/06/08 00:35:47;;;;;;;;;9.75;9.75;;;;;20.76;60.51;98997.22;5088455;27;45434;-64
2023/06/08 00:38:12;;;;;;;;;18.25;17.25;;;;;20.76;60.52;98995.41;5073938;27;45644;-65
2023/06/08 00:40:38;;;;;;;;;16.50;16.50;;;;;20.80;60.26;98993.28;5076425;27;47731;-64
2023/06/08 00:43:03;;;;;;;;;15.75;15.75;;;;;20.84;59.85;99000.94;5072470;27;45432;-64
2023/06/08 00:45:29;;;;;;;;;18.75;16.00;;;;;20.86;60.36;98993.63;5072040;27;45510;-63
2023/06/08 00:47:54;;;;;;;;;15.25;15.25;;;;;20.88;60.09;98990.81;5090733;27;45629;-63
2023/06/08 00:50:20;;;;;;;;;14.50;13.75;;;;;20.88;60.02;98989.00;5088509;27;46139;-63
2023/06/08 00:52:46;;;;;;;;;17.75;17.00;;;;;20.89;60.18;98995.22;5070648;27;45953;-63
2023/06/08 00:55:11;;;;;;;;;17.25;17.00;;;;;20.89;59.99;98984.50;5082482;27;45342;-64
2023/06/08 00:57:38;;;;;;;;;17.00;16.25;;;;;20.89;59.94;98988.03;5092855;27;45530;-63
2023/06/08 01:00:05;;;;;;;;;18.00;16.00;;;;;20.88;60.00;98991.69;5084088;27;46108;-63
2023/06/08 01:02:31;;;;;;;;;22.50;17.75;;;;;20.87;60.07;98983.75;5092560;27;45553;-63
2023/06/08 01:04:56;;;;;;;;;17.00;16.25;;;;;20.87;59.58;98991.81;5088341;27;45482;-63
2023/06/08 01:07:25;;;;;;;;;16.25;15.00;;;;;20.86;59.33;98990.94;5075633;27;45557;-63
2023/06/08 01:10:08;;;;;;;;;17.75;17.75;;;;;20.85;59.07;98989.25;5070131;27;47267;-64
2023/06/08 01:12:51;;;;;;;;;14.80;14.80;;;;;20.84;58.76;98987.56;5093242;27;45462;-63
2023/06/08 01:15:26;;;;;;;;;16.50;14.25;;;;;20.81;58.93;98993.16;5092379;27;45458;-64
2023/06/08 01:17:57;;;;;;;;;16.25;16.25;;;;;20.78;59.06;98992.59;5092107;27;45491;-63
2023/06/08 01:20:44;;;;;;;;;16.75;16.25;;;;;20.76;58.82;98991.88;5089038;27;45461;-63
2023/06/08 01:23:25;;;;;;;;;16.50;15.00;;;;;20.76;58.67;98989.19;5093073;27;45313;-63
2023/06/08 01:25:55;;;;;;;;;13.00;13.00;;;;;20.75;58.88;98982.13;5086483;27;45455;-63
2023/06/08 01:28:22;;;;;;;;;14.75;13.50;;;;;20.74;58.71;98980.44;5092019;27;45433;-64
2023/06/08 01:30:48;;;;;;;;;16.00;14.50;;;;;20.73;58.12;98976.03;5086895;27;47945;-63
2023/06/08 01:33:27;;;;;;;;;17.25;15.75;;;;;20.71;58.52;98968.13;5088876;27;45416;-64
2023/06/08 01:35:52;;;;;;;;;17.25;17.25;;;;;20.71;58.50;98969.97;5088692;27;45443;-63
2023/06/08 01:38:28;;;;;;;;;16.25;15.75;;;;;20.71;58.15;98975.31;5071338;27;45519;-63
2023/06/08 01:40:56;;;;;;;;;16.25;16.25;;;;;20.69;58.01;98972.78;5094447;27;46406;-63
2023/06/08 01:43:24;;;;;;;;;16.40;15.20;;;;;20.66;58.16;98969.50;5090969;27;45460;-63
2023/06/08 01:45:55;;;;;;;;;17.25;15.75;;;;;20.58;58.20;98970.16;5091094;27;45456;-64
2023/06/08 01:48:23;;;;;;;;;17.00;16.75;;;;;20.54;58.28;98968.69;5071931;27;45463;-64
2023/06/08 01:50:51;;;;;;;;;13.75;13.25;;;;;20.52;58.45;98978.69;5094893;27;45488;-63
2023/06/08 01:53:17;;;;;;;;;17.50;16.75;;;;;20.51;58.42;98974.31;5075748;27;45580;-63
2023/06/08 01:55:42;;;;;;;;;20.00;17.75;;;;;20.51;58.47;98975.16;5085669;27;45432;-63
2023/06/08 01:58:07;;;;;;;;;17.50;17.50;;;;;20.50;58.72;98968.09;5089582;27;45462;-63
2023/06/08 02:00:33;;;;;;;;;17.25;17.25;;;;;20.50;58.62;98961.88;5074683;27;46465;-63
2023/06/08 02:02:58;;;;;;;;;15.00;14.00;;;;;20.50;58.74;98970.78;5089652;27;45399;-63
2023/06/08 02:05:24;;;;;;;;;17.25;15.50;;;;;20.51;59.04;98966.25;5073364;27;45423;-63
2023/06/08 02:07:50;;;;;;;;;17.75;17.75;;;;;20.48;58.85;98959.34;5074536;27;45345;-63
2023/06/08 02:10:17;;;;;;;;;16.75;15.00;;;;;20.48;58.63;98953.97;5069554;27;47534;-63
2023/06/08 02:12:42;;;;;;;;;17.00;17.00;;;;;20.46;58.47;98960.44;5091865;27;45337;-63
2023/06/08 02:15:08;;;;;;;;;15.25;13.50;;;;;20.44;58.97;98952.53;5088005;27;45657;-63
2023/06/08 02:17:35;;;;;;;;;18.00;16.75;;;;;20.44;58.66;98959.75;5083584;27;45512;-63
2023/06/08 02:20:05;;;;;;;;;15.00;14.00;;;;;20.40;59.02;98953.78;5083654;27;46214;-64
2023/06/08 02:22:31;;;;;;;;;17.75;16.25;;;;;20.36;59.11;98951.44;5092044;27;45376;-63
2023/06/08 02:24:56;;;;;;;;;14.75;14.50;;;;;20.35;59.04;98955.09;5069295;27;45532;-63
2023/06/08 02:27:22;;;;;;;;;12.00;12.00;;;;;20.32;59.61;98950.00;5093179;27;45405;-63
2023/06/08 02:29:47;;;;;;;;;16.00;16.00;;;;;20.31;59.23;98948.28;5088513;27;45544;-63
2023/06/08 02:32:13;;;;;;;;;18.00;15.50;;;;;20.30;59.14;98949.25;5094358;27;45440;-63
2023/06/08 02:34:38;;;;;;;;;14.25;13.50;;;;;20.28;59.47;98948.53;5088551;27;46006;-63
2023/06/08 02:37:04;;;;;;;;;19.75;15.75;;;;;20.24;59.42;98944.44;5094512;27;45505;-63
2023/06/08 02:39:30;;;;;;;;;11.75;8.25;;;;;20.21;59.75;98951.75;5084424;27;45618;-63
2023/06/08 02:41:55;;;;;;;;;15.50;15.50;;;;;20.20;59.85;98941.16;5084528;27;45569;-64
2023/06/08 02:44:21;;;;;;;;;13.50;12.25;;;;;20.16;59.51;98937.88;5087303;27;45434;-63
2023/06/08 02:46:47;;;;;;;;;16.25;14.75;;;;;20.15;60.12;98941.53;5085160;27;45352;-63
2023/06/08 02:49:13;;;;;;;;;15.00;12.00;;;;;20.14;60.06;98930.94;5068741;27;47368;-63
2023/06/08 02:51:38;;;;;;;;;15.50;15.00;;;;;20.12;59.97;98932.88;5093679;27;45409;-63
2023/06/08 02:54:04;;;;;;;;;15.00;14.50;;;;;20.10;60.04;98940.22;5075050;27;45731;-63
2023/06/08 02:56:29;;;;;;;;;14.25;14.25;;;;;20.10;60.48;98937.53;5093749;27;45463;-63
2023/06/08 02:58:54;;;;;;;;;14.50;14.50;;;;;20.08;60.00;98934.13;5084648;27;47215;-63
2023/06/08 03:01:20;;;;;;;;;13.50;10.25;;;;;20.08;60.47;98939.50;5089916;27;45389;-63
2023/06/08 03:03:48;;;;;;;;;14.50;13.00;;;;;20.07;60.53;98938.63;5090647;27;45360;-63
2023/06/08 03:06:17;;;;;;;;;14.50;12.75;;;;;20.06;60.30;98949.47;5092403;27;45510;-63
2023/06/08 03:08:47;;;;;;;;;11.50;11.50;;;;;20.03;60.34;98945.22;5074165;27;45437;-63
2023/06/08 03:11:14;;;;;;;;;11.50;10.25;;;;;20.01;60.99;98941.81;5071381;27;45523;-63
2023/06/08 03:13:39;;;;;;;;;14.75;13.50;;;;;20.00;60.72;98942.78;5074440;27;45467;-63
2023/06/08 03:16:05;;;;;;;;;14.25;13.00;;;;;20.00;60.37;98936.56;5094440;27;45531;-63
2023/06/08 03:18:30;;;;;;;;;12.25;10.75;;;;;20.00;60.52;98940.09;5077304;27;46100;-63
2023/06/08 03:20:58;;;;;;;;;12.75;10.75;;;;;20.00;60.86;98942.78;5096856;27;45326;-63
2023/06/08 03:23:23;;;;;;;;;16.50;16.00;;;;;19.99;61.04;98941.06;5088027;27;45539;-63
2023/06/08 03:25:50;;;;;;;;;16.00;15.00;;;;;20.00;61.37;98952.63;5079752;27;45543;-63
2023/06/08 03:28:16;;;;;;;;;14.25;14.00;;;;;19.99;61.00;98943.75;5075061;27;45458;-63
2023/06/08 03:30:42;;;;;;;;;18.00;18.00;;;;;19.99;61.53;98946.44;5068185;28;45388;-63
2023/06/08 03:33:10;;;;;;;;;22.00;19.75;;;;;19.99;61.74;98949.09;5091868;27;45295;-63
2023/06/08 03:35:37;;;;;;;;;16.00;12.50;;;;;20.00;61.82;98942.78;5095201;27;45491;-63
2023/06/08 03:38:02;;;;;;;;;17.25;16.00;;;;;19.98;61.74;98941.19;5093220;27;45637;-63
2023/06/08 03:40:27;;;;;;;;;18.75;17.50;;;;;19.98;62.11;98943.88;5085502;27;45330;-63
2023/06/08 03:42:53;;;;;;;;;19.00;18.25;;;;;19.96;61.88;98946.66;5092967;27;45457;-63
2023/06/08 03:45:19;;;;;;;;;18.75;18.00;;;;;19.94;62.15;98937.09;5079931;27;45536;-63
2023/06/08 03:47:44;;;;;;;;;17.50;17.50;;;;;19.92;62.33;98939.03;5092985;27;45428;-63
2023/06/08 03:50:13;;;;;;;;;19.25;19.25;;;;;19.92;62.16;98939.03;5085004;27;45418;-63
2023/06/08 03:52:39;;;;;;;;;17.00;16.25;;;;;19.92;62.69;98952.41;5093721;27;45435;-63
2023/06/08 03:55:08;;;;;;;;;18.25;18.25;;;;;19.91;62.80;98940.88;5077741;27;45493;-63
2023/06/08 03:57:35;;;;;;;;;21.00;19.75;;;;;19.89;62.59;98941.97;5092509;27;46072;-63
2023/06/08 04:00:01;;;;;;;;;19.20;16.40;;;;;19.86;62.67;98933.22;5086633;27;45432;-63
2023/06/08 04:02:26;;;;;;;;;18.50;18.00;;;;;19.84;62.64;98937.81;5095382;27;45560;-63
2023/06/08 04:04:53;;;;;;;;;18.75;17.75;;;;;19.85;62.48;98939.53;5087002;27;45576;-63
2023/06/08 04:07:20;;;;;;;;;30.25;26.25;;;;;19.84;62.54;98936.97;5095970;27;46276;-63
2023/06/08 04:09:46;;;;;;;;;35.67;31.33;;;;;19.84;63.09;98937.81;5090955;27;45510;-63
2023/06/08 04:12:12;;;;;;;;;27.25;22.50;;;;;19.86;62.97;98937.69;5094788;27;45444;-64
2023/06/08 04:14:37;;;;;;;;;18.00;18.00;;;;;19.85;62.65;98944.88;5089836;27;45392;-63
2023/06/08 04:17:05;;;;;;;;;19.50;17.00;;;;;19.81;62.27;98946.09;5096018;27;45929;-63
2023/06/08 04:19:30;;;;;;;;;17.25;16.50;;;;;19.80;62.67;98954.25;5072390;27;45416;-64
2023/06/08 04:21:56;;;;;;;;;19.50;16.50;;;;;19.77;62.49;98952.66;5096048;27;45415;-63
2023/06/08 04:24:25;;;;;;;;;17.75;17.00;;;;;19.76;62.73;98953.66;5092862;27;45615;-63
2023/06/08 04:26:50;;;;;;;;;16.75;15.00;;;;;19.76;62.63;98961.69;5095491;27;46647;-63
2023/06/08 04:29:16;;;;;;;;;14.50;14.50;;;;;19.74;63.06;98958.28;5074896;27;45452;-63
2023/06/08 04:31:42;;;;;;;;;15.25;14.50;;;;;19.74;62.78;98960.09;5073929;28;45485;-63
2023/06/08 04:34:08;;;;;;;;;16.75;16.75;;;;;19.74;62.93;98957.44;5068546;27;45461;-63
2023/06/08 04:36:34;;;;;;;;;17.25;16.50;;;;;19.74;62.83;98954.75;5087257;27;46415;-63
2023/06/08 04:39:00;;;;;;;;;17.25;17.25;;;;;19.75;63.34;98949.28;5089363;27;45381;-64
2023/06/08 04:41:28;;;;;;;;;17.50;17.25;;;;;19.78;63.48;98958.84;5095733;27;45371;-63
2023/06/08 04:43:54;;;;;;;;;15.50;15.25;;;;;19.79;63.57;98958.75;5069987;27;45529;-63
2023/06/08 04:46:24;;;;;;;;;18.00;17.75;;;;;19.82;63.46;98952.28;5064733;28;45474;-63
2023/06/08 04:48:50;;;;;;;;;18.25;16.25;;;;;19.83;63.12;98962.03;5082436;27;45508;-63
2023/06/08 04:51:15;;;;;;;;;21.25;18.25;;;;;19.83;62.50;98956.66;5087549;27;45732;-63
2023/06/08 04:53:42;;;;;;;;;22.75;20.25;;;;;19.82;63.38;98966.53;5087930;27;45376;-64
2023/06/08 04:56:07;;;;;;;;;19.75;18.25;;;;;19.80;63.28;98965.78;5073279;28;45814;-63
2023/06/08 04:58:33;;;;;;;;;17.25;17.25;;;;;19.79;62.53;98966.75;5074875;27;45692;-63
2023/06/08 05:00:59;;;;;;;;;19.25;18.50;;;;;19.81;63.39;98967.50;5087389;27;45401;-63
2023/06/08 05:03:25;;;;;;;;;21.50;20.50;;;;;19.83;63.98;98960.19;5089062;27;45485;-63
2023/06/08 05:05:51;;;;;;;;;24.50;22.50;;;;;19.87;63.14;98968.84;5091328;27;46522;-63
2023/06/08 05:08:19;;;;;;;;;23.00;20.50;;;;;19.89;63.76;98958.00;5089827;27;45520;-63
2023/06/08 05:10:44;;;;;;;;;16.50;15.25;;;;;19.92;63.73;98966.66;5083270;27;45519;-63
2023/06/08 05:13:10;;;;;;;;;19.50;17.50;;;;;19.97;63.96;98968.94;5074785;27;45329;-63
2023/06/08 05:15:36;;;;;;;;;18.00;16.75;;;;;20.00;63.47;98963.34;5093841;27;45395;-63
2023/06/08 05:18:01;;;;;;;;;17.75;15.50;;;;;20.02;63.47;98959.56;5089903;27;45445;-63
2023/06/08 05:20:29;;;;;;;;;24.50;22.50;;;;;20.04;63.56;98965.66;5093939;27;45341;-63
2023/06/08 05:22:58;;;;;;;;;19.25;19.25;;;;;20.08;63.41;98967.09;5091705;27;45482;-63
2023/06/08 05:25:23;;;;;;;;;17.25;15.25;;;;;20.12;62.34;98973.88;5086236;27;46373;-63
2023/06/08 05:27:49;;;;;;;;;16.00;15.00;;;;;20.15;62.57;98968.28;5091639;27;45368;-63
2023/06/08 05:30:14;;;;;;;;;18.00;16.00;;;;;20.20;61.98;98971.44;5087646;27;45503;-63
2023/06/08 05:32:40;;;;;;;;;16.50;15.50;;;;;20.24;61.93;98964.03;5093102;27;45726;-63
2023/06/08 05:35:06;;;;;;;;;18.00;18.00;;;;;20.30;62.20;98974.22;5088855;27;45568;-63
2023/06/08 05:37:31;;;;;;;;;14.50;14.50;;;;;20.32;61.50;98972.25;5079745;27;45450;-63
2023/06/08 05:39:57;;;;;;;;;18.50;18.50;;;;;20.32;61.46;98969.59;5086285;27;45566;-63
2023/06/08 05:42:22;;;;;;;;;23.50;21.50;;;;;20.32;62.18;98977.63;5092015;27;45334;-63
2023/06/08 05:44:50;;;;;;;;;23.50;21.00;;;;;20.35;61.92;98973.84;5068479;27;46232;-62
2023/06/08 05:47:15;;;;;;;;;15.25;14.50;;;;;20.36;61.91;98981.78;5093646;27;45434;-63
2023/06/08 05:49:41;;;;;;;;;18.00;17.75;;;;;20.40;62.00;98975.19;5087994;27;45487;-64
2023/06/08 05:52:06;;;;;;;;;19.25;19.00;;;;;20.44;61.95;98978.47;5085764;27;45492;-65
2023/06/08 05:54:32;;;;;;;;;22.50;19.50;;;;;20.47;62.07;98973.69;5085230;27;46396;-66
2023/06/08 05:56:57;;;;;;;;;18.50;17.75;;;;;20.53;61.92;98977.72;5087486;27;45365;-66
2023/06/08 05:59:22;;;;;;;;;21.50;20.25;;;;;20.58;61.37;98975.50;5078142;27;45566;-68
2023/06/08 06:01:48;;;;;;;;;27.50;21.00;;;;;20.62;61.30;98968.88;5070406;27;45499;-65
2023/06/08 06:04:14;;;;;;;;;23.00;21.25;;;;;20.63;61.23;98967.91;5083661;27;46581;-65
2023/06/08 06:06:40;;;;;;;;;25.00;22.75;;;;;20.65;61.54;98967.78;5073940;27;45343;-65
2023/06/08 06:09:06;;;;;;;;;29.25;25.50;;;;;20.61;61.55;98975.22;5082619;27;45389;-65
2023/06/08 06:11:31;;;;;;;;;22.50;20.50;;;;;20.62;61.22;98974.25;5086982;27;45586;-65
2023/06/08 06:14:00;;;;;;;;;20.00;18.75;;;;;20.64;60.95;98979.47;5081442;27;46454;-65
2023/06/08 06:16:26;;;;;;;;;20.25;19.25;;;;;20.58;61.85;98988.03;5072100;27;45462;-65
2023/06/08 06:18:52;;;;;;;;;21.00;19.00;;;;;20.45;62.51;98985.50;5090892;27;45455;-65
2023/06/08 06:21:17;;;;;;;;;23.25;22.25;;;;;20.36;62.21;98989.81;5093021;27;45389;-65
2023/06/08 06:23:44;;;;;;;;;13.75;11.00;;;;;20.27;62.41;98985.19;5088244;27;46164;-65
2023/06/08 06:26:10;;;;;;;;;20.75;19.75;;;;;20.24;61.79;98981.91;5087665;27;45503;-65
2023/06/08 06:28:35;;;;;;;;;23.25;20.25;;;;;20.16;62.10;98987.88;5088296;27;45386;-65
2023/06/08 06:31:01;;;;;;;;;18.00;14.75;;;;;20.11;62.23;98990.06;5086319;27;45445;-65
2023/06/08 06:33:26;;;;;;;;;22.00;20.00;;;;;20.08;62.11;98972.47;5073718;27;46036;-66
2023/06/08 06:35:53;;;;;;;;;21.00;18.25;;;;;20.02;62.23;98978.31;5091523;27;45487;-66
2023/06/08 06:38:19;;;;;;;;;19.00;18.50;;;;;19.97;62.30;98976.97;5077738;27;45643;-65
2023/06/08 06:40:47;;;;;;;;;25.50;22.75;;;;;19.94;62.63;98975.38;5076252;27;45638;-66
2023/06/08 06:43:12;;;;;;;;;20.50;19.25;;;;;19.99;62.65;98975.00;5069653;27;45634;-65
2023/06/08 06:45:38;;;;;;;;;24.50;20.75;;;;;20.04;62.33;98972.81;5076716;27;45503;-67
2023/06/08 06:48:04;;;;;;;;;22.50;18.75;;;;;20.12;62.17;98973.03;5092636;27;45374;-64
2023/06/08 06:50:30;;;;;;;;;22.75;22.00;;;;;20.19;62.15;98974.25;5074480;27;45291;-64
2023/06/08 06:52:55;;;;;;;;;19.25;19.25;;;;;20.26;62.10;98969.25;5091771;27;45594;-64
2023/06/08 06:55:21;;;;;;;;;19.25;18.25;;;;;20.32;61.66;98971.41;5083162;27;45466;-65
2023/06/08 06:57:48;;;;;;;;;20.75;19.25;;;;;20.40;61.82;98967.16;5092388;27;45511;-65
2023/06/08 07:00:14;;;;;;;;;20.50;19.50;;;;;20.48;61.89;98969.19;5083997;27;45488;-65
2023/06/08 07:02:40;;;;;;;;;20.00;19.00;;;;;20.47;61.61;98963.00;5081552;27;45545;-65
2023/06/08 07:05:07;;;;;;;;;22.75;20.75;;;;;20.48;61.93;98970.03;5069186;27;45418;-65
2023/06/08 07:07:35;;;;;;;;;20.00;19.25;;;;;20.49;61.60;98963.72;5062959;27;45552;-65
2023/06/08 07:10:01;;;;;;;;;23.75;20.75;;;;;20.52;61.72;98966.16;5086900;27;45573;-66
2023/06/08 07:12:27;;;;;;;;;20.75;20.75;;;;;20.60;61.52;98967.34;5081868;27;46013;-65
2023/06/08 07:14:53;;;;;;;;;21.50;19.00;;;;;20.64;60.85;98958.03;5064322;27;45394;-65
2023/06/08 07:17:18;;;;;;;;;21.75;21.50;;;;;20.72;61.18;98963.63;5073156;27;45528;-65
2023/06/08 07:19:46;;;;;;;;;23.50;21.50;;;;;20.77;60.67;98967.63;5091985;27;45604;-65
2023/06/08 07:22:11;;;;;;;;;18.25;18.25;;;;;20.87;60.46;98955.13;5093019;27;46337;-66
2023/06/08 07:24:37;;;;;;;;;18.75;18.50;;;;;20.95;60.54;98954.47;5083968;27;45805;-65
2023/06/08 07:27:02;;;;;;;;;21.50;21.50;;;;;21.01;60.59;98958.47;5077652;27;45837;-65
2023/06/08 07:29:28;;;;;;;;;20.75;19.75;;;;;21.07;60.36;98956.13;5070278;27;45740;-65
2023/06/08 07:31:53;;;;;;;;;20.00;19.00;;;;;21.13;59.93;98957.41;5093701;27;46258;-65
2023/06/08 07:34:19;;;;;;;;;17.00;16.25;;;;;21.18;59.74;98950.69;5085675;27;45519;-65
2023/06/08 07:36:44;;;;;;;;;20.50;19.00;;;;;21.26;59.81;98951.88;5071743;28;45566;-66
2023/06/08 07:39:09;;;;;;;;;22.75;21.25;;;;;21.31;59.59;98950.50;5076516;27;45497;-66
2023/06/08 07:41:35;;;;;;;;;21.50;21.50;;;;;21.40;59.22;98949.72;5087953;27;46161;-65
2023/06/08 07:44:01;;;;;;;;;21.50;20.00;;;;;21.47;59.10;98947.31;5101545;27;45503;-64
2023/06/08 07:46:27;;;;;;;;;20.00;18.25;;;;;21.52;58.99;98945.94;5073633;27;45415;-65
2023/06/08 07:48:53;;;;;;;;;20.50;19.50;;;;;21.59;58.55;98939.06;5085155;27;45491;-65
2023/06/08 07:51:18;;;;;;;;;21.75;20.00;;;;;21.62;58.45;98934.41;5087316;27;45333;-65
2023/06/08 07:53:44;;;;;;;;;18.75;18.75;;;;;21.65;58.58;98928.75;5068900;27;46087;-65
2023/06/08 07:56:10;;;;;;;;;16.25;16.25;;;;;21.71;58.26;98925.53;5069733;27;45406;-65
2023/06/08 07:58:35;;;;;;;;;15.50;15.50;;;;;21.78;58.47;98921.34;5090165;27;45493;-65
2023/06/08 08:01:01;;;;;;;;;21.00;20.00;;;;;21.87;58.14;98920.50;5087727;27;45603;-65
2023/06/08 08:03:27;;;;;;;;;19.25;16.75;;;;;21.96;58.10;98916.97;5088934;27;45452;-64
2023/06/08 08:05:53;;;;;;;;;23.25;21.50;;;;;22.03;58.14;98912.78;5091572;27;45425;-65
2023/06/08 08:08:18;;;;;;;;;18.00;17.50;;;;;22.06;58.04;98922.41;5089964;27;45377;-64
2023/06/08 08:10:44;;;;;;;;;21.00;18.25;;;;;22.05;57.24;98912.66;5069717;28;46604;-64
2023/06/08 08:13:11;;;;;;;;;20.25;20.25;;;;;22.08;57.40;98915.06;5067618;27;45338;-64
2023/06/08 08:15:39;;;;;;;;;16.50;15.75;;;;;22.12;57.56;98919.19;5075093;27;45499;-65
2023/06/08 08:18:05;;;;;;;;;24.25;21.25;;;;;22.16;57.03;98910.69;5092584;27;45603;-65
2023/06/08 08:20:30;;;;;;;;;20.25;18.50;;;;;22.21;57.54;98907.59;5090902;27;46117;-65
2023/06/08 08:22:55;;;;;;;;;20.50;19.75;;;;;22.28;57.27;98901.53;5091609;27;45497;-65
2023/06/08 08:25:21;;;;;;;;;19.00;17.00;;;;;22.39;56.95;98895.16;5092518;27;45639;-65
2023/06/08 08:27:47;;;;;;;;;17.00;16.25;;;;;22.50;56.75;98884.25;5091979;27;45522;-65
2023/06/08 08:30:13;;;;;;;;;17.75;17.75;;;;;22.59;56.23;98883.41;5075479;27;47435;-65
2023/06/08 08:32:38;;;;;;;;;17.25;17.00;;;;;22.68;55.58;98883.53;5093083;27;45548;-65
2023/06/08 08:35:04;;;;;;;;;17.00;16.75;;;;;22.72;55.46;98880.41;5079233;27;45455;-66
2023/06/08 08:37:31;;;;;;;;;18.00;18.00;;;;;22.76;55.23;98876.47;5089577;27;45380;-65
2023/06/08 08:39:57;;;;;;;;;23.25;20.00;;;;;22.86;55.00;98876.47;5088482;27;45622;-65
2023/06/08 08:42:26;;;;;;;;;22.00;16.75;;;;;22.97;54.99;98874.44;5088257;27;45628;-65
2023/06/08 08:44:56;;;;;;;;;18.50;18.50;;;;;23.11;54.69;98877.69;5085635;27;45464;-66
2023/06/08 08:47:24;;;;;;;;;17.75;17.75;;;;;23.23;54.95;98871.13;5094830;27;45520;-65
2023/06/08 08:50:17;;;;;;;;;16.50;16.50;;;;;23.35;54.35;98861.84;5088728;27;45612;-66
2023/06/08 08:52:45;;;;;;;;;24.25;20.50;;;;;23.47;54.23;98859.81;5088243;27;45405;-66
2023/06/08 08:55:11;;;;;;;;;19.50;19.00;;;;;23.57;53.71;98858.81;5075974;27;45535;-66
2023/06/08 08:57:37;;;;;;;;;21.25;19.00;;;;;23.65;53.65;98866.13;5090389;27;45532;-65
2023/06/08 09:00:06;;;;;;;;;21.25;18.00;;;;;23.72;53.25;98861.84;5084702;27;45482;-66
2023/06/08 09:02:35;;;;;;;;;19.00;18.40;;;;;23.77;52.50;98856.00;5092565;27;45455;-65
2023/06/08 09:05:03;;;;;;;;;19.50;18.25;;;;;23.78;52.93;98855.00;5089606;27;45396;-66
2023/06/08 09:07:29;;;;;;;;;14.75;14.50;;;;;23.82;52.78;98853.69;5107797;27;45685;-65
2023/06/08 09:10:14;;;;;;;;;16.50;16.00;;;;;23.87;52.48;98854.94;5068728;27;48124;-65
2023/06/08 09:12:41;;;;;;;;;17.60;16.40;;;;;23.92;51.69;98851.81;5086006;27;45519;-65
2023/06/08 09:15:16;;;;;;;;;15.00;15.00;;;;;23.94;52.13;98849.81;5092091;27;45444;-65
2023/06/08 09:17:44;;;;;;;;;17.75;14.00;;;;;23.98;52.18;98838.56;5080565;27;45383;-66
2023/06/08 09:20:11;;;;;;;;;17.75;16.50;;;;;24.02;52.00;98839.94;5085249;27;45451;-66
2023/06/08 09:22:38;;;;;;;;;19.40;18.20;;;;;24.08;51.80;98837.66;5074264;27;45628;-66
2023/06/08 09:25:05;;;;;;;;;19.50;17.25;;;;;24.19;51.87;98838.25;5090888;27;45393;-66
2023/06/08 09:27:31;;;;;;;;;14.25;14.25;;;;;24.26;51.18;98835.84;5093104;27;45473;-65
2023/06/08 09:29:57;;;;;;;;;17.25;16.25;;;;;24.27;50.99;98833.00;5085880;27;46490;-65
2023/06/08 09:32:31;;;;;;;;;13.75;12.50;;;;;24.26;51.26;98841.22;5094818;27;45523;-66
2023/06/08 09:35:01;;;;;;;;;18.25;18.25;;;;;24.23;50.96;98830.72;5085449;27;45401;-65
2023/06/08 09:37:32;;;;;;;;;17.50;15.75;;;;;24.23;51.53;98838.78;5075397;27;45514;-66
2023/06/08 09:40:00;;;;;;;;;18.00;17.00;;;;;24.22;51.50;98834.41;5099492;27;45458;-66
2023/06/08 09:42:50;;;;;;;;;18.60;18.40;;;;;24.25;51.62;98824.22;5072712;27;45390;-65
2023/06/08 09:45:17;;;;;;;;;15.00;14.50;;;;;24.29;50.41;98830.13;5089325;27;45317;-65
2023/06/08 09:47:43;;;;;;;;;17.00;17.00;;;;;24.29;51.16;98827.44;5091513;27;45460;-65
2023/06/08 09:50:10;;;;;;;;;16.00;15.75;;;;;24.29;50.73;98820.22;5080187;27;47599;-65
2023/06/08 09:52:37;;;;;;;;;17.75;16.75;;;;;24.36;50.86;98823.09;5089830;27;45684;-66
2023/06/08 09:55:03;;;;;;;;;13.75;13.75;;;;;24.40;50.93;98812.88;5086940;27;45462;-66
2023/06/08 09:57:34;;;;;;;;;16.50;15.25;;;;;24.44;50.61;98816.94;5089960;27;45566;-66
2023/06/08 10:00:21;;;;;;;;;20.50;19.25;;;;;24.47;50.76;98817.47;5083862;27;46298;-64
2023/06/08 10:02:58;;;;;;;;;17.40;17.40;;;;;24.53;50.30;98810.59;5079468;27;45461;-64
2023/06/08 10:05:28;;;;;;;;;16.00;15.50;;;;;24.56;50.19;98810.28;5085371;27;45343;-65
2023/06/08 10:07:56;;;;;;;;;20.50;17.00;;;;;24.58;50.32;98814.53;5091281;27;45504;-65
2023/06/08 10:10:29;;;;;;;;;16.50;13.50;;;;;24.62;50.61;98813.22;5089430;27;45432;-65
2023/06/08 10:12:56;;;;;;;;;16.25;16.25;;;;;24.68;50.40;98801.78;5101314;27;45890;-66
2023/06/08 10:15:24;;;;;;;;;16.25;15.50;;;;;24.76;49.98;98798.31;5094316;27;45416;-65
2023/06/08 10:17:53;;;;;;;;;14.25;13.25;;;;;24.90;50.29;98804.97;5076601;27;45680;-65
2023/06/08 10:20:20;;;;;;;;;19.00;17.50;;;;;25.02;50.26;98795.59;5095350;27;45413;-65
2023/06/08 10:22:46;;;;;;;;;17.20;15.60;;;;;25.13;50.56;98799.91;5095266;27;45418;-65
2023/06/08 10:25:13;;;;;;;;;16.50;15.25;;;;;25.17;50.41;98794.00;5094834;27;45508;-65
2023/06/08 10:27:47;;;;;;;;;17.25;17.25;;;;;25.18;50.54;98798.38;5095284;27;45609;-65
2023/06/08 10:30:26;;;;;;;;;15.75;15.75;;;;;25.10;51.78;98803.75;5095069;27;46574;-65
2023/06/08 10:32:52;;;;;;;;;14.60;14.60;;;;;25.08;52.00;98796.81;5094858;27;45561;-65
2023/06/08 10:35:17;;;;;;;;;17.25;16.25;;;;;25.07;51.76;98792.44;5080888;27;45378;-66
2023/06/08 10:37:44;;;;;;;;;15.25;12.25;;;;;25.04;51.57;98790.91;5091241;27;45385;-66
2023/06/08 10:40:11;;;;;;;;;16.75;15.75;;;;;24.99;51.61;98794.06;5085107;27;45507;-65
2023/06/08 10:42:58;;;;;;;;;17.50;17.00;;;;;24.98;51.46;98786.97;5092254;27;45515;-65
2023/06/08 10:45:33;;;;;;;;;15.00;14.00;;;;;24.98;51.92;98786.13;5093562;27;45552;-65
2023/06/08 10:48:09;;;;;;;;;21.00;16.00;;;;;25.00;52.29;98776.03;5089263;27;45524;-65
2023/06/08 10:50:39;;;;;;;;;17.50;15.75;;;;;25.03;51.96;98784.66;5066429;27;45625;-65
2023/06/08 10:53:05;;;;;;;;;18.00;16.60;;;;;25.04;51.92;98788.19;5074418;27;45423;-65
2023/06/08 10:55:30;;;;;;;;;15.25;14.75;;;;;25.03;51.71;98767.63;5086634;27;45530;-65
2023/06/08 10:58:17;;;;;;;;;14.25;14.25;;;;;25.07;51.10;98768.16;5073739;27;45436;-65
2023/06/08 11:00:43;;;;;;;;;14.75;13.50;;;;;25.06;49.86;98775.41;5088781;27;45489;-66
2023/06/08 11:03:14;;;;;;;;;15.20;13.80;;;;;25.07;50.06;98778.94;5092179;27;45373;-65
2023/06/08 11:05:43;;;;;;;;;15.75;15.00;;;;;25.08;49.27;98770.69;5092646;27;45488;-66
2023/06/08 11:08:08;;;;;;;;;14.75;14.75;;;;;25.12;50.04;98768.53;5092414;27;45459;-65
2023/06/08 11:10:36;;;;;;;;;15.00;14.50;;;;;25.22;49.53;98767.38;5099809;27;45413;-65
2023/06/08 11:13:08;;;;;;;;;14.40;14.40;;;;;25.35;48.69;98756.13;5074638;27;45329;-66
2023/06/08 11:15:35;;;;;;;;;11.50;11.50;;;;;25.52;48.64;98751.59;5100622;27;45495;-65
2023/06/08 11:18:02;;;;;;;;;11.75;9.00;;;;;25.69;46.45;98756.06;5086822;27;45384;-65